Time;durP1;ratioP1;P1;durP2;ratioP2;P2;SDS_P1;SDS_P2;PMS_P1;PMS_P2;Temp;Humidity;BMP_temperature;BMP_pressure;BME280_temperature;BME280_humidity;BME280_pressure;Samples;Min_cycle;Max_cycle;Signal;HPM_P1;HPM_P2
2022/12/05 00:00:59;;;;;;;30.55;10.43;;;;;;;;;;5018377;28;20041;-81
2022/12/05 00:03:24;;;;;;;37.92;12.65;;;;;;;;;;5013509;28;20029;-80
2022/12/05 00:05:50;;;;;;;36.55;11.00;;;;;;;;;;5022233;28;20027;-81
2022/12/05 00:08:15;;;;;;;31.58;11.57;;;;;;;;;;5023374;28;20577;-81
2022/12/05 00:10:41;;;;;;;30.73;9.88;;;;;;;;;;5022715;28;20117;-81
2022/12/05 00:13:06;;;;;;;25.45;11.27;;;;;;;;;;5023255;28;20026;-81
2022/12/05 00:15:36;;;;;;;35.20;12.80;;;;;;;;;;5023217;28;20124;-81
2022/12/05 00:18:01;;;;;;;33.97;12.55;;;;;;;;;;5017514;28;20041;-80
2022/12/05 00:20:27;;;;;;;33.65;11.55;;;;;;;;;;5020479;28;20030;-80
2022/12/05 00:22:52;;;;;;;34.75;12.20;;;;;;;;;;5021053;28;20091;-81
2022/12/05 00:25:17;;;;;;;28.25;10.50;;;;;;;;;;5013926;28;20063;-80
2022/12/05 00:27:42;;;;;;;32.47;12.43;;;;;;;;;;5020978;28;20037;-81
2022/12/05 00:30:08;;;;;;;33.22;10.88;;;;;;;;;;5018734;28;20029;-81
2022/12/05 00:32:33;;;;;;;27.52;11.05;;;;;;;;;;5017141;28;20075;-81
2022/12/05 00:34:59;;;;;;;30.90;11.48;;;;;;;;;;5021659;28;20034;-81
2022/12/05 00:37:24;;;;;;;29.17;11.43;;;;;;;;;;5025391;28;20033;-81
2022/12/05 00:39:50;;;;;;;31.30;11.05;;;;;;;;;;5023846;28;20151;-81
2022/12/05 00:42:15;;;;;;;26.20;10.38;;;;;;;;;;5024978;28;20108;-81
2022/12/05 00:44:41;;;;;;;30.38;10.60;;;;;;;;;;5025943;28;20057;-81
2022/12/05 00:47:06;;;;;;;26.33;10.75;;;;;;;;;;5024842;28;20049;-81
2022/12/05 00:49:31;;;;;;;29.23;11.73;;;;;;;;;;5022252;28;20033;-81
2022/12/05 00:51:57;;;;;;;25.45;10.50;;;;;;;;;;5015101;28;20384;-81
2022/12/05 00:54:22;;;;;;;29.80;10.07;;;;;;;;;;5025054;28;20092;-81
2022/12/05 00:56:47;;;;;;;21.60;9.27;;;;;;;;;;5022891;28;20053;-81
2022/12/05 00:59:16;;;;;;;24.15;11.05;;;;;;;;;;5020899;28;20050;-80
2022/12/05 01:01:43;;;;;;;25.30;10.00;;;;;;;;;;5038363;28;20037;-81
2022/12/05 01:04:16;;;;;;;25.17;10.73;;;;;;;;;;5024705;28;20041;-80
2022/12/05 01:06:41;;;;;;;;;;;;;;;;;;5019594;28;20110;-81
2022/12/05 01:09:09;;;;;;;27.33;9.93;;;;;;;;;;5021585;28;19913;-81
2022/12/05 01:11:34;;;;;;;20.38;8.57;;;;;;;;;;5022961;28;20014;-81
2022/12/05 01:14:00;;;;;;;24.33;8.70;;;;;;;;;;5020366;28;20064;-81
2022/12/05 01:16:32;;;;;;;20.83;9.10;;;;;;;;;;5026256;28;20078;-82
2022/12/05 01:18:59;;;;;;;25.08;9.05;;;;;;;;;;5024724;28;20041;-81
2022/12/05 01:21:25;;;;;;;22.52;9.93;;;;;;;;;;5025022;28;20044;-81
2022/12/05 01:23:50;;;;;;;26.17;10.48;;;;;;;;;;5026491;28;20045;-81
2022/12/05 01:26:19;;;;;;;30.90;10.48;;;;;;;;;;5023620;28;20037;-81
2022/12/05 01:28:45;;;;;;;22.17;9.05;;;;;;;;;;5021501;28;20529;-80
2022/12/05 01:31:26;;;;;;;26.85;10.18;;;;;;;;;;5024854;28;20653;-81
2022/12/05 01:33:53;;;;;;;21.95;8.95;;;;;;;;;;5024219;28;20522;-81
2022/12/05 01:36:20;;;;;;;26.92;9.05;;;;;;;;;;5017374;28;20041;-81
2022/12/05 01:38:45;;;;;;;24.98;10.07;;;;;;;;;;5026526;28;20013;-81
2022/12/05 01:41:17;;;;;;;23.13;8.82;;;;;;;;;;5023767;28;20083;-81
2022/12/05 01:43:56;;;;;;;27.88;10.55;;;;;;;;;;5024210;28;20033;-81
2022/12/05 01:46:22;;;;;;;26.30;10.40;;;;;;;;;;5024301;28;20514;-81
2022/12/05 01:48:49;;;;;;;28.85;10.20;;;;;;;;;;5025495;28;20041;-81
2022/12/05 01:51:14;;;;;;;28.65;10.85;;;;;;;;;;5025976;28;20037;-81
2022/12/05 01:53:40;;;;;;;24.73;10.35;;;;;;;;;;5020347;28;20017;-81
2022/12/05 01:56:06;;;;;;;28.20;10.15;;;;;;;;;;5025400;28;20129;-81
2022/12/05 01:58:38;;;;;;;27.88;10.80;;;;;;;;;;5023801;28;20029;-80
2022/12/05 02:01:04;;;;;;;25.10;10.07;;;;;;;;;;5025459;28;20124;-81
2022/12/05 02:03:30;;;;;;;24.52;8.75;;;;;;;;;;5025152;28;20125;-81
2022/12/05 02:05:57;;;;;;;25.67;10.10;;;;;;;;;;5024470;28;20060;-81
2022/12/05 02:08:23;;;;;;;27.63;10.05;;;;;;;;;;5025585;28;20584;-80
2022/12/05 02:10:51;;;;;;;21.83;8.80;;;;;;;;;;5007937;28;20039;-81
2022/12/05 02:13:35;;;;;;;25.55;9.55;;;;;;;;;;5023619;28;20026;-81
2022/12/05 02:16:16;;;;;;;27.05;10.75;;;;;;;;;;5025043;28;20039;-81
2022/12/05 02:18:45;;;;;;;26.55;9.98;;;;;;;;;;5021661;28;20032;-80
2022/12/05 02:21:32;;;;;;;24.90;9.50;;;;;;;;;;5023008;28;20033;-81
2022/12/05 02:24:25;;;;;;;26.27;9.70;;;;;;;;;;5033208;28;20376;-81
2022/12/05 02:26:56;;;;;;;25.45;9.90;;;;;;;;;;5024757;28;20017;-81
2022/12/05 02:29:43;;;;;;;25.38;9.80;;;;;;;;;;5022251;28;20449;-80
2022/12/05 02:32:25;;;;;;;23.02;8.98;;;;;;;;;;5039876;28;20070;-81
2022/12/05 02:34:53;;;;;;;29.23;10.13;;;;;;;;;;5019929;28;20061;-81
2022/12/05 02:37:43;;;;;;;27.63;9.95;;;;;;;;;;5019531;28;20132;-81
2022/12/05 02:40:25;;;;;;;23.08;9.15;;;;;;;;;;5025212;28;20060;-81
2022/12/05 02:42:50;;;;;;;20.88;9.38;;;;;;;;;;5025112;28;20154;-81
2022/12/05 02:45:20;;;;;;;28.58;10.43;;;;;;;;;;5024835;28;20499;-80
2022/12/05 02:47:48;;;;;;;29.70;9.65;;;;;;;;;;5024650;28;20033;-80
2022/12/05 02:50:19;;;;;;;24.77;9.43;;;;;;;;;;5017367;28;20408;-81
2022/12/05 02:52:47;;;;;;;28.95;10.63;;;;;;;;;;5022072;28;20033;-81
2022/12/05 02:55:15;;;;;;;23.77;9.38;;;;;;;;;;5015484;28;20042;-81
2022/12/05 02:57:44;;;;;;;28.67;10.45;;;;;;;;;;5022353;28;20057;-80
2022/12/05 03:00:10;;;;;;;31.63;11.02;;;;;;;;;;5024496;28;20040;-81
2022/12/05 03:02:40;;;;;;;24.58;8.82;;;;;;;;;;5025175;28;20679;-80
2022/12/05 03:05:14;;;;;;;22.17;9.52;;;;;;;;;;5024736;28;20033;-81
2022/12/05 03:07:43;;;;;;;34.45;11.15;;;;;;;;;;5036957;28;20037;-81
2022/12/05 03:10:11;;;;;;;31.42;9.52;;;;;;;;;;5019522;28;20053;-80
2022/12/05 03:12:42;;;;;;;28.15;9.80;;;;;;;;;;5025338;28;20087;-81
2022/12/05 03:15:16;;;;;;;29.48;9.93;;;;;;;;;;5025777;28;20032;-80
2022/12/05 03:17:50;;;;;;;28.70;10.15;;;;;;;;;;5026107;28;20053;-81
2022/12/05 03:20:22;;;;;;;24.23;8.30;;;;;;;;;;5024202;28;20038;-81
2022/12/05 03:22:56;;;;;;;27.27;10.00;;;;;;;;;;5023814;28;20033;-81
2022/12/05 03:25:28;;;;;;;21.45;9.35;;;;;;;;;;5024271;28;20228;-80
2022/12/05 03:28:17;;;;;;;28.42;10.90;;;;;;;;;;5024663;28;20045;-81
2022/12/05 03:30:42;;;;;;;22.65;8.88;;;;;;;;;;5024328;28;20037;-80
2022/12/05 03:33:14;;;;;;;24.85;9.98;;;;;;;;;;5026057;28;20037;-81
2022/12/05 03:36:07;;;;;;;21.50;9.35;;;;;;;;;;5022272;28;20028;-81
2022/12/05 03:38:46;;;;;;;24.35;9.15;;;;;;;;;;5014652;28;20092;-81
2022/12/05 03:41:34;;;;;;;21.98;7.95;;;;;;;;;;5020477;28;20092;-80
2022/12/05 03:44:15;;;;;;;22.10;7.38;;;;;;;;;;5023763;28;20038;-81
2022/12/05 03:46:47;;;;;;;21.10;8.32;;;;;;;;;;5023748;28;20033;-80
2022/12/05 03:49:22;;;;;;;19.45;7.70;;;;;;;;;;5021474;28;20045;-81
2022/12/05 03:51:57;;;;;;;17.45;7.60;;;;;;;;;;5033471;28;20499;-81
2022/12/05 03:54:36;;;;;;;18.20;8.10;;;;;;;;;;5036865;28;20038;-80
2022/12/05 03:57:07;;;;;;;19.13;8.43;;;;;;;;;;5012118;28;20068;-81
2022/12/05 03:59:41;;;;;;;21.05;8.32;;;;;;;;;;5025392;28;20027;-81
2022/12/05 04:02:13;;;;;;;19.65;7.97;;;;;;;;;;5025713;28;20041;-80
2022/12/05 04:04:47;;;;;;;25.17;9.48;;;;;;;;;;5023743;28;20132;-81
2022/12/05 04:07:15;;;;;;;20.38;7.88;;;;;;;;;;5025461;28;20525;-81
2022/12/05 04:09:49;;;;;;;19.52;8.30;;;;;;;;;;5025448;28;20034;-80
2022/12/05 04:12:21;;;;;;;21.25;8.00;;;;;;;;;;5026228;28;20507;-81
2022/12/05 04:14:51;;;;;;;18.83;8.30;;;;;;;;;;5017549;28;20014;-81
2022/12/05 04:17:19;;;;;;;18.52;9.20;;;;;;;;;;5028426;28;20636;-81
2022/12/05 04:22:35;;;;;;;20.05;7.70;;;;;;;;;;5029089;28;20044;-81
2022/12/05 04:27:59;;;;;;;20.98;8.93;;;;;;;;;;5026120;28;20122;-82
2022/12/05 04:30:31;;;;;;;19.58;7.43;;;;;;;;;;5025518;28;20044;-81
2022/12/05 04:33:10;;;;;;;15.30;6.30;;;;;;;;;;5028735;28;20140;-81
2022/12/05 04:36:10;;;;;;;18.65;8.02;;;;;;;;;;5025952;28;20013;-82
2022/12/05 04:38:50;;;;;;;21.10;8.30;;;;;;;;;;4999866;28;20053;-81
2022/12/05 04:41:23;;;;;;;23.83;8.23;;;;;;;;;;5027291;28;20041;-82
2022/12/05 04:43:51;;;;;;;20.77;8.27;;;;;;;;;;5026119;28;20686;-81
2022/12/05 04:46:18;;;;;;;25.33;9.02;;;;;;;;;;5028760;28;20044;-82
2022/12/05 04:48:49;;;;;;;24.73;9.27;;;;;;;;;;5027731;28;20470;-81
2022/12/05 04:51:19;;;;;;;25.35;8.73;;;;;;;;;;5026817;28;20044;-81
2022/12/05 04:53:46;;;;;;;21.98;8.40;;;;;;;;;;5027975;28;20025;-82
2022/12/05 04:56:16;;;;;;;23.55;8.75;;;;;;;;;;5028320;28;20514;-81
2022/12/05 04:58:42;;;;;;;24.38;8.23;;;;;;;;;;5026660;28;20037;-82
2022/12/05 05:01:19;;;;;;;23.85;9.07;;;;;;;;;;5028932;28;20057;-82
2022/12/05 05:03:50;;;;;;;20.00;8.90;;;;;;;;;;5026438;28;20033;-81
2022/12/05 05:06:16;;;;;;;27.83;10.98;;;;;;;;;;5028211;28;20578;-81
2022/12/05 05:08:51;;;;;;;21.83;8.13;;;;;;;;;;5029187;28;20112;-82
2022/12/05 05:11:23;;;;;;;31.55;11.30;;;;;;;;;;5026838;28;20132;-85
2022/12/05 05:13:48;;;;;;;22.33;9.63;;;;;;;;;;5026629;28;20580;-81
2022/12/05 05:16:17;;;;;;;24.40;8.80;;;;;;;;;;5027119;28;20033;-81
2022/12/05 05:18:44;;;;;;;24.90;9.15;;;;;;;;;;5027802;28;20044;-81
2022/12/05 05:21:27;;;;;;;30.42;10.55;;;;;;;;;;5024089;28;20025;-81
2022/12/05 05:23:53;;;;;;;22.90;9.18;;;;;;;;;;5014805;28;20502;-81
2022/12/05 05:26:19;;;;;;;24.13;9.35;;;;;;;;;;5024342;28;20132;-81
2022/12/05 05:28:45;;;;;;;29.23;9.77;;;;;;;;;;5027639;28;20037;-81
2022/12/05 05:31:11;;;;;;;29.33;10.35;;;;;;;;;;5024914;28;20124;-82
2022/12/05 05:33:37;;;;;;;25.05;9.20;;;;;;;;;;5024361;28;20128;-82
2022/12/05 05:36:08;;;;;;;27.42;10.30;;;;;;;;;;5027908;28;20030;-82
2022/12/05 05:38:38;;;;;;;27.13;9.43;;;;;;;;;;5025431;28;20052;-82
2022/12/05 05:41:04;;;;;;;23.75;8.65;;;;;;;;;;5026947;28;20033;-81
2022/12/05 05:43:30;;;;;;;31.00;10.05;;;;;;;;;;5021115;28;20068;-82
2022/12/05 05:45:55;;;;;;;26.45;10.77;;;;;;;;;;5032628;28;20131;-82
2022/12/05 05:48:20;;;;;;;23.33;9.90;;;;;;;;;;5027376;28;20527;-82
2022/12/05 05:50:46;;;;;;;28.25;11.88;;;;;;;;;;5025660;28;20032;-81
2022/12/05 05:53:11;;;;;;;33.30;10.77;;;;;;;;;;5026332;28;20033;-82
2022/12/05 05:55:40;;;;;;;34.33;11.52;;;;;;;;;;5022964;28;20033;-82
2022/12/05 05:58:06;;;;;;;32.58;10.73;;;;;;;;;;5021459;28;20057;-82
2022/12/05 06:00:32;;;;;;;33.35;11.05;;;;;;;;;;5024966;28;20067;-81
2022/12/05 06:02:57;;;;;;;33.70;10.40;;;;;;;;;;5025412;28;20557;-82
2022/12/05 06:05:23;;;;;;;24.77;9.93;;;;;;;;;;5027662;28;20279;-82
2022/12/05 06:07:48;;;;;;;30.20;9.70;;;;;;;;;;5042126;28;20044;-82
2022/12/05 06:10:13;;;;;;;25.10;10.35;;;;;;;;;;5025328;28;20041;-81
2022/12/05 06:12:39;;;;;;;29.77;10.30;;;;;;;;;;5027246;28;20033;-82
2022/12/05 06:15:05;;;;;;;33.17;10.25;;;;;;;;;;5025669;28;20268;-81
2022/12/05 06:17:30;;;;;;;28.58;10.85;;;;;;;;;;5023198;28;21760;-81
2022/12/05 06:19:56;;;;;;;37.55;12.07;;;;;;;;;;5025578;28;20561;-82
2022/12/05 06:22:21;;;;;;;25.33;9.23;;;;;;;;;;5025293;28;20033;-82
2022/12/05 06:24:46;;;;;;;29.15;9.48;;;;;;;;;;5024195;28;20132;-81
2022/12/05 06:27:12;;;;;;;23.20;9.55;;;;;;;;;;5022145;28;20036;-81
2022/12/05 06:29:37;;;;;;;32.22;11.60;;;;;;;;;;5024455;28;20070;-81
2022/12/05 06:32:02;;;;;;;32.10;9.85;;;;;;;;;;5024813;28;20044;-81
2022/12/05 06:34:28;;;;;;;34.78;11.07;;;;;;;;;;5023363;28;20483;-82
2022/12/05 06:36:53;;;;;;;29.13;11.50;;;;;;;;;;5020601;28;20700;-82
2022/12/05 06:39:19;;;;;;;28.02;9.75;;;;;;;;;;5024884;28;20037;-83
2022/12/05 06:41:44;;;;;;;34.03;11.43;;;;;;;;;;5025514;28;20021;-82
2022/12/05 06:44:09;;;;;;;33.92;10.75;;;;;;;;;;5025167;28;20040;-82
2022/12/05 06:46:35;;;;;;;27.85;10.52;;;;;;;;;;5024019;28;20037;-82
2022/12/05 06:49:00;;;;;;;35.13;10.02;;;;;;;;;;5026421;28;20100;-82
2022/12/05 06:51:25;;;;;;;32.95;10.32;;;;;;;;;;5012291;28;20042;-82
2022/12/05 06:53:51;;;;;;;32.17;12.25;;;;;;;;;;5025866;28;20036;-82
2022/12/05 06:56:21;;;;;;;31.70;10.85;;;;;;;;;;5025434;28;20045;-83
2022/12/05 06:58:48;;;;;;;30.15;10.90;;;;;;;;;;5039247;28;20640;-81
2022/12/05 07:01:39;;;;;;;26.08;9.98;;;;;;;;;;5021774;28;20128;-78
2022/12/05 07:04:19;;;;;;;29.75;10.07;;;;;;;;;;5021634;28;20514;-82
2022/12/05 07:06:45;;;;;;;26.50;9.20;;;;;;;;;;5025731;28;20053;-82
2022/12/05 07:09:10;;;;;;;26.73;10.15;;;;;;;;;;5024363;28;20025;-82
2022/12/05 07:11:36;;;;;;;39.35;11.50;;;;;;;;;;5026240;28;20227;-78
2022/12/05 07:14:02;;;;;;;27.05;10.48;;;;;;;;;;5022807;28;20931;-81
2022/12/05 07:16:28;;;;;;;32.85;10.95;;;;;;;;;;5023338;28;20029;-79
2022/12/05 07:18:54;;;;;;;33.20;11.68;;;;;;;;;;5011557;28;20053;-81
2022/12/05 07:21:21;;;;;;;29.38;10.82;;;;;;;;;;5020515;28;20051;-82
2022/12/05 07:23:48;;;;;;;27.95;10.05;;;;;;;;;;5016308;28;20071;-81
2022/12/05 07:26:16;;;;;;;32.20;10.25;;;;;;;;;;5012594;28;20040;-81
2022/12/05 07:28:41;;;;;;;25.35;9.70;;;;;;;;;;5012693;28;20025;-81
2022/12/05 07:31:15;;;;;;;39.50;10.38;;;;;;;;;;5021677;28;20486;-82
2022/12/05 07:33:40;;;;;;;24.70;10.18;;;;;;;;;;5023411;28;20029;-82
2022/12/05 07:36:12;;;;;;;27.48;9.75;;;;;;;;;;5026483;28;20037;-81
2022/12/05 07:38:38;;;;;;;28.50;10.32;;;;;;;;;;5023973;28;20028;-82
2022/12/05 07:41:05;;;;;;;32.83;10.13;;;;;;;;;;5023788;28;20100;-81
2022/12/05 07:43:31;;;;;;;28.58;10.32;;;;;;;;;;5024339;28;20120;-81
2022/12/05 07:46:02;;;;;;;27.40;10.57;;;;;;;;;;5025391;28;20479;-81
2022/12/05 07:48:27;;;;;;;28.38;10.25;;;;;;;;;;5016164;28;20052;-81
2022/12/05 07:50:53;;;;;;;28.65;10.70;;;;;;;;;;5009832;28;20030;-82
2022/12/05 07:53:18;;;;;;;33.03;9.50;;;;;;;;;;5021634;28;20056;-81
2022/12/05 07:55:43;;;;;;;26.45;10.27;;;;;;;;;;5019726;28;20511;-82
2022/12/05 07:58:09;;;;;;;31.10;9.35;;;;;;;;;;5016724;28;20509;-82
2022/12/05 08:00:34;;;;;;;38.35;11.02;;;;;;;;;;5020522;28;20524;-82
2022/12/05 08:03:01;;;;;;;31.35;10.68;;;;;;;;;;5023149;28;20036;-84
2022/12/05 08:05:27;;;;;;;25.25;9.25;;;;;;;;;;5022952;28;20029;-83
2022/12/05 08:07:52;;;;;;;25.60;10.25;;;;;;;;;;5021220;28;20030;-82
2022/12/05 08:10:17;;;;;;;33.67;10.60;;;;;;;;;;5020432;28;20085;-81
2022/12/05 08:12:43;;;;;;;32.55;9.52;;;;;;;;;;5015175;28;20149;-83
2022/12/05 08:15:08;;;;;;;25.55;9.65;;;;;;;;;;5018525;28;20036;-82
2022/12/05 08:17:34;;;;;;;23.45;8.50;;;;;;;;;;5019926;28;20025;-82
2022/12/05 08:19:59;;;;;;;22.20;8.82;;;;;;;;;;5014900;28;20045;-83
2022/12/05 08:22:28;;;;;;;23.85;9.27;;;;;;;;;;5032804;28;20191;-81
2022/12/05 08:24:53;;;;;;;28.15;10.30;;;;;;;;;;5032873;28;20026;-82
2022/12/05 08:27:18;;;;;;;29.77;10.82;;;;;;;;;;5019921;28;20095;-82
2022/12/05 08:29:44;;;;;;;27.00;10.27;;;;;;;;;;5017177;28;20021;-81
2022/12/05 08:32:09;;;;;;;25.73;9.85;;;;;;;;;;5017289;28;20034;-82
2022/12/05 08:34:34;;;;;;;21.33;9.63;;;;;;;;;;5018367;28;20033;-82
2022/12/05 08:37:00;;;;;;;39.03;10.55;;;;;;;;;;5018650;28;20041;-82
2022/12/05 08:39:26;;;;;;;33.17;10.48;;;;;;;;;;5023160;28;20656;-82
2022/12/05 08:41:51;;;;;;;20.88;9.27;;;;;;;;;;5022170;28;20112;-82
2022/12/05 08:44:17;;;;;;;36.05;9.70;;;;;;;;;;5024200;28;20037;-82
2022/12/05 08:46:45;;;;;;;33.10;9.68;;;;;;;;;;5021659;28;20037;-82
2022/12/05 08:49:11;;;;;;;39.53;11.48;;;;;;;;;;5012871;28;20111;-82
2022/12/05 08:51:36;;;;;;;35.17;11.63;;;;;;;;;;5017927;28;20102;-82
2022/12/05 08:54:03;;;;;;;48.13;11.93;;;;;;;;;;5019196;28;20052;-82
2022/12/05 08:56:29;;;;;;;32.88;10.63;;;;;;;;;;5021078;28;20022;-82
2022/12/05 08:58:55;;;;;;;34.85;12.18;;;;;;;;;;5027957;28;20033;-82
2022/12/05 09:01:21;;;;;;;40.60;11.57;;;;;;;;;;5026993;28;20022;-82
2022/12/05 09:03:47;;;;;;;38.42;11.05;;;;;;;;;;5026477;28;20083;-82
2022/12/05 09:06:20;;;;;;;28.70;9.38;;;;;;;;;;5026785;28;20021;-82
2022/12/05 09:08:46;;;;;;;35.75;9.80;;;;;;;;;;5022067;28;20534;-82
2022/12/05 09:11:14;;;;;;;58.47;11.52;;;;;;;;;;5025716;28;20128;-83
2022/12/05 09:13:40;;;;;;;33.50;10.90;;;;;;;;;;5026367;28;20032;-83
2022/12/05 09:16:17;;;;;;;36.85;12.38;;;;;;;;;;5027353;28;20041;-83
2022/12/05 09:18:43;;;;;;;43.72;10.43;;;;;;;;;;5021572;28;20021;-82
2022/12/05 09:21:11;;;;;;;32.17;12.23;;;;;;;;;;5026523;28;20088;-83
2022/12/05 09:23:38;;;;;;;25.58;10.70;;;;;;;;;;5022152;28;20029;-84
2022/12/05 09:26:05;;;;;;;37.78;10.80;;;;;;;;;;5016593;28;20124;-82
2022/12/05 09:28:32;;;;;;;30.88;12.00;;;;;;;;;;5025190;28;20037;-83
2022/12/05 09:31:00;;;;;;;46.40;11.68;;;;;;;;;;5025702;28;20045;-83
2022/12/05 09:33:27;;;;;;;37.90;12.48;;;;;;;;;;5027839;28;20034;-83
2022/12/05 09:35:52;;;;;;;33.17;11.82;;;;;;;;;;5025964;28;20569;-83
2022/12/05 09:38:17;;;;;;;34.03;10.18;;;;;;;;;;5020449;28;20033;-83
2022/12/05 09:40:43;;;;;;;36.88;11.55;;;;;;;;;;5022526;28;20398;-83
2022/12/05 09:43:29;;;;;;;33.95;12.43;;;;;;;;;;5026908;28;20586;-83
2022/12/05 09:46:22;;;;;;;36.83;11.55;;;;;;;;;;5022614;28;20041;-83
2022/12/05 09:48:48;;;;;;;35.47;11.90;;;;;;;;;;5008517;28;20303;-84
2022/12/05 09:51:14;;;;;;;28.70;11.07;;;;;;;;;;5019917;28;20509;-83
2022/12/05 09:53:42;;;;;;;32.40;11.45;;;;;;;;;;5025259;28;20562;-83
2022/12/05 09:56:27;;;;;;;27.10;10.10;;;;;;;;;;5022254;28;20628;-83
2022/12/05 09:58:54;;;;;;;29.70;10.07;;;;;;;;;;5014083;28;20029;-83
2022/12/05 10:01:40;;;;;;;29.88;9.85;;;;;;;;;;5025799;28;20037;-83
2022/12/05 10:04:27;;;;;;;31.98;10.07;;;;;;;;;;5025622;28;20037;-83
2022/12/05 10:06:53;;;;;;;33.65;12.52;;;;;;;;;;5024206;28;20037;-83
2022/12/05 10:09:33;;;;;;;31.50;10.63;;;;;;;;;;5018401;28;20081;-82
2022/12/05 10:12:14;;;;;;;30.27;11.18;;;;;;;;;;5022549;28;20044;-83
2022/12/05 10:14:39;;;;;;;29.58;9.70;;;;;;;;;;5021224;28;20940;-83
2022/12/05 10:17:17;;;;;;;27.70;10.95;;;;;;;;;;5021250;28;20045;-83
2022/12/05 10:19:46;;;;;;;25.88;10.52;;;;;;;;;;5022340;28;20033;-83
2022/12/05 10:22:17;;;;;;;25.88;10.18;;;;;;;;;;5024086;28;20033;-83
2022/12/05 10:24:58;;;;;;;26.23;9.15;;;;;;;;;;5013486;28;20034;-83
2022/12/05 10:27:37;;;;;;;30.23;10.73;;;;;;;;;;5032739;28;20427;-87
2022/12/05 10:30:13;;;;;;;29.15;9.77;;;;;;;;;;5021696;28;20022;-84
2022/12/05 10:32:45;;;;;;;25.08;9.80;;;;;;;;;;5022250;28;20029;-83
2022/12/05 10:35:26;;;;;;;29.23;10.63;;;;;;;;;;5019848;28;20037;-83
2022/12/05 10:37:55;;;;;;;26.17;10.23;;;;;;;;;;5024952;28;20039;-83
2022/12/05 10:40:21;;;;;;;25.15;10.35;;;;;;;;;;5015095;28;20048;-83
2022/12/05 10:42:48;;;;;;;23.67;10.00;;;;;;;;;;5004638;28;20049;-82
2022/12/05 10:45:17;;;;;;;30.42;10.45;;;;;;;;;;5022480;28;20030;-83
2022/12/05 10:47:42;;;;;;;32.85;11.00;;;;;;;;;;5024976;28;20115;-83
2022/12/05 10:50:28;;;;;;;28.40;9.85;;;;;;;;;;5021306;28;20077;-83
2022/12/05 10:52:57;;;;;;;30.35;11.20;;;;;;;;;;5020167;28;20906;-83
2022/12/05 10:55:28;;;;;;;26.05;10.40;;;;;;;;;;5010860;28;20037;-83
2022/12/05 10:58:10;;;;;;;32.50;12.20;;;;;;;;;;5012830;28;20029;-83
2022/12/05 11:00:36;;;;;;;26.88;10.50;;;;;;;;;;5018827;28;20041;-83
2022/12/05 11:03:04;;;;;;;28.70;11.32;;;;;;;;;;5019598;28;20029;-82
2022/12/05 11:05:31;;;;;;;29.85;11.10;;;;;;;;;;5021663;28;20698;-83
2022/12/05 11:07:57;;;;;;;36.83;12.10;;;;;;;;;;5020191;28;20044;-83
2022/12/05 11:10:36;;;;;;;30.45;11.30;;;;;;;;;;5018274;28;20072;-83
2022/12/05 11:13:14;;;;;;;34.85;11.00;;;;;;;;;;5035984;28;20087;-83
2022/12/05 11:15:45;;;;;;;32.85;11.18;;;;;;;;;;5029911;28;20071;-83
2022/12/05 11:18:31;;;;;;;33.92;11.23;;;;;;;;;;5017761;28;20029;-83
2022/12/05 11:21:11;;;;;;;29.55;11.93;;;;;;;;;;5003648;28;20029;-83
2022/12/05 11:23:38;;;;;;;27.70;9.82;;;;;;;;;;5014835;28;21022;-78
2022/12/05 11:26:18;;;;;;;31.58;10.57;;;;;;;;;;5015465;28;20037;-83
2022/12/05 11:28:43;;;;;;;26.40;9.70;;;;;;;;;;5018880;28;20037;-84
2022/12/05 11:31:15;;;;;;;28.05;9.93;;;;;;;;;;5022995;28;20044;-84
2022/12/05 11:33:41;;;;;;;26.50;10.57;;;;;;;;;;5029174;28;20076;-83
2022/12/05 11:36:16;;;;;;;31.70;11.75;;;;;;;;;;5022626;28;20061;-83
2022/12/05 11:38:42;;;;;;;23.42;9.80;;;;;;;;;;5015694;28;20524;-84
2022/12/05 11:41:19;;;;;;;26.60;9.35;;;;;;;;;;5012333;28;20041;-84
2022/12/05 11:44:06;;;;;;;27.10;10.20;;;;;;;;;;5017751;28;20098;-84
2022/12/05 11:46:52;;;;;;;26.17;10.13;;;;;;;;;;5014046;28;20041;-83
2022/12/05 11:49:17;;;;;;;26.27;10.35;;;;;;;;;;5014881;28;20043;-82
2022/12/05 11:52:04;;;;;;;21.25;8.82;;;;;;;;;;5020387;28;20041;-83
2022/12/05 11:54:39;;;;;;;26.38;9.70;;;;;;;;;;5020458;28;20164;-83
2022/12/05 11:57:22;;;;;;;27.70;9.13;;;;;;;;;;5023580;28;20069;-82
2022/12/05 12:00:07;;;;;;;26.23;10.20;;;;;;;;;;5024530;28;20065;-82
2022/12/05 12:03:01;;;;;;;26.10;8.82;;;;;;;;;;5020456;28;20092;-83
2022/12/05 12:05:48;;;;;;;27.48;10.25;;;;;;;;;;5010139;28;20069;-83
2022/12/05 12:08:35;;;;;;;27.60;9.15;;;;;;;;;;5016695;28;20140;-86
2022/12/05 12:11:13;;;;;;;23.42;9.55;;;;;;;;;;5018041;28;20610;-85
2022/12/05 12:14:15;;;;;;;20.38;8.52;;;;;;;;;;5014746;28;20057;-84
2022/12/05 12:16:59;;;;;;;21.08;8.80;;;;;;;;;;5020104;28;20519;-86
2022/12/05 12:19:31;;;;;;;;;;;;;;;;;;5023719;28;20072;-84
2022/12/05 12:22:24;;;;;;;24.70;8.60;;;;;;;;;;5021589;28;19913;-86
2022/12/05 12:24:53;;;;;;;20.55;6.85;;;;;;;;;;5023238;28;20041;-85
2022/12/05 12:27:30;;;;;;;21.50;8.27;;;;;;;;;;5021568;28;20041;-85
2022/12/05 12:30:03;;;;;;;25.73;10.55;;;;;;;;;;5025012;28;20041;-87
2022/12/05 12:32:37;;;;;;;20.38;8.80;;;;;;;;;;5018948;28;20041;-85
2022/12/05 12:35:20;;;;;;;20.52;8.32;;;;;;;;;;5024625;28;20033;-86
2022/12/05 12:37:45;;;;;;;23.80;8.65;;;;;;;;;;5027070;28;20415;-86
2022/12/05 12:40:21;;;;;;;23.65;7.82;;;;;;;;;;5027171;28;20033;-85
2022/12/05 12:43:08;;;;;;;27.45;9.13;;;;;;;;;;5024321;28;20083;-85
2022/12/05 12:45:46;;;;;;;16.95;7.78;;;;;;;;;;5026336;28;20117;-86
2022/12/05 12:48:24;;;;;;;18.48;8.55;;;;;;;;;;5025482;28;20037;-86
2022/12/05 12:50:52;;;;;;;21.10;8.02;;;;;;;;;;5022355;28;20030;-87
2022/12/05 12:53:38;;;;;;;21.63;8.65;;;;;;;;;;5027594;28;20084;-88
2022/12/05 12:56:26;;;;;;;20.58;7.22;;;;;;;;;;5036488;28;20061;-84
2022/12/05 12:59:12;;;;;;;18.50;7.80;;;;;;;;;;5024518;28;20037;-81
2022/12/05 13:01:56;;;;;;;17.45;8.10;;;;;;;;;;5026920;28;20422;-87
2022/12/05 13:04:54;;;;;;;24.17;9.05;;;;;;;;;;5025799;28;20080;-87
2022/12/05 13:07:28;;;;;;;22.08;9.05;;;;;;;;;;5042099;28;20136;-87
2022/12/05 13:10:11;;;;;;;20.20;8.10;;;;;;;;;;5023048;28;20057;-86
2022/12/05 13:12:38;;;;;;;18.07;8.30;;;;;;;;;;5023468;28;20064;-84
2022/12/05 13:15:15;;;;;;;20.90;8.30;;;;;;;;;;5022840;28;20275;-83
2022/12/05 13:17:43;;;;;;;20.38;9.05;;;;;;;;;;5023510;28;20021;-84
2022/12/05 13:20:24;;;;;;;20.38;7.93;;;;;;;;;;5026058;28;20045;-81
2022/12/05 13:22:51;;;;;;;25.23;8.80;;;;;;;;;;5019821;28;20116;-80
2022/12/05 13:25:20;;;;;;;29.92;9.88;;;;;;;;;;5021601;28;20155;-81
2022/12/05 13:28:02;;;;;;;23.33;9.07;;;;;;;;;;5026229;28;20053;-81
2022/12/05 13:30:28;;;;;;;16.40;8.52;;;;;;;;;;5026237;28;20033;-80
2022/12/05 13:32:58;;;;;;;31.95;8.88;;;;;;;;;;5023767;28;20065;-79
2022/12/05 13:43:56;;;;;;;22.70;9.18;;;;;;;;;;5020303;28;20104;-81
2022/12/05 13:46:29;;;;;;;22.10;8.77;;;;;;;;;;5018314;28;20584;-80
2022/12/05 13:49:13;;;;;;;26.57;8.87;;;;;;;;;;5024367;28;20048;-82
2022/12/05 13:51:42;;;;;;;21.02;8.10;;;;;;;;;;5013704;28;20044;-80
2022/12/05 13:54:25;;;;;;;26.00;8.80;;;;;;;;;;5017388;28;20033;-81
2022/12/05 13:57:01;;;;;;;22.85;8.52;;;;;;;;;;5017186;28;20117;-83
2022/12/05 14:00:03;;;;;;;24.13;9.20;;;;;;;;;;5022225;28;20856;-80
2022/12/05 14:02:41;;;;;;;22.17;9.38;;;;;;;;;;5026923;28;20064;-81
2022/12/05 14:05:12;;;;;;;25.38;8.82;;;;;;;;;;5023398;28;20038;-80
2022/12/05 14:07:43;;;;;;;26.30;8.82;;;;;;;;;;5013298;28;20052;-81
2022/12/05 14:10:12;;;;;;;19.80;8.63;;;;;;;;;;5027453;28;20554;-81
2022/12/05 14:12:52;;;;;;;22.20;9.00;;;;;;;;;;5023707;28;20526;-82
2022/12/05 14:15:44;;;;;;;22.17;9.15;;;;;;;;;;5015803;28;20635;-81
2022/12/05 14:18:42;;;;;;;27.92;9.93;;;;;;;;;;5019972;28;20495;-81
2022/12/05 14:21:26;;;;;;;24.25;9.32;;;;;;;;;;5022758;28;20564;-80
2022/12/05 14:24:03;;;;;;;26.55;10.70;;;;;;;;;;5027067;28;20025;-81
2022/12/05 14:27:18;;;;;;;23.42;9.27;;;;;;;;;;5015240;28;20049;-82
2022/12/05 14:30:21;;;;;;;21.58;8.68;;;;;;;;;;5022235;28;20056;-81
2022/12/05 14:32:47;;;;;;;28.17;9.63;;;;;;;;;;5014184;28;20042;-82
2022/12/05 14:35:54;;;;;;;21.85;9.48;;;;;;;;;;5016654;28;20523;-81
2022/12/05 14:38:27;;;;;;;22.58;9.73;;;;;;;;;;5018827;28;20045;-81
2022/12/05 14:40:52;;;;;;;25.63;9.57;;;;;;;;;;5020185;28;20040;-80
2022/12/05 14:43:32;;;;;;;23.23;9.02;;;;;;;;;;5021561;28;20037;-80
2022/12/05 14:46:01;;;;;;;25.63;10.05;;;;;;;;;;5015196;28;20041;-81
2022/12/05 14:48:36;;;;;;;23.80;10.65;;;;;;;;;;5025596;28;20617;-81
2022/12/05 14:51:30;;;;;;;25.27;9.40;;;;;;;;;;5024852;28;20025;-81
2022/12/05 14:54:03;;;;;;;25.42;8.73;;;;;;;;;;5022721;28;20564;-80
2022/12/05 14:56:30;;;;;;;22.80;9.43;;;;;;;;;;5027073;28;20063;-81
2022/12/05 14:59:03;;;;;;;26.33;9.82;;;;;;;;;;5034995;28;20741;-79
2022/12/05 15:01:34;;;;;;;25.70;10.52;;;;;;;;;;5005916;28;20124;-82
2022/12/05 15:04:08;;;;;;;27.95;11.15;;;;;;;;;;5010970;28;20134;-81